• Join FlightAware (Why Join?)
  • Login
  • US Flag 
04:05AM EST


 

Airport Tracker/Info


-or-


 

Live Flight TrackerFlight Track Log ✈ AXM5414 ✈ 10-May-2014 ✈ WMKJ / JHB - WBGG / KCH

Flight Track Log - Related Links

Times and Time Zones

All times are in EDT time to prevent confusion due to time zone crossing. See the AXM5414 flight status page for this flight to view local times or setup timezone preferences in your user account.

Time Position Orientation Groundspeed Altitude Reporting Facility
EDT Latitude Longitude Course Direction KTS MPH feet Rate Location/Type
07:01PM 1.6063 103.6816 160° South 143 165 1,900  Level FlightAware ADS-B (WSAT / TGA)
07:01PM 1.5972 103.6849 158° South 145 167 2,400 1,800 Climbing FlightAware ADS-B (WSAT / TGA)
07:01PM 1.5940 103.6865 152° Southeast 144 166 2,500 1,980 Climbing FlightAware ADS-B (WSAT / TGA)
07:01PM 1.5912 103.6885 144° Southeast 146 168 2,700 1,800 Climbing FlightAware ADS-B (WSAT / TGA)
07:01PM 1.5889 103.6905 137° Southeast 148 170 2,800 1,080 Climbing FlightAware ADS-B (WSAT / TGA)
07:01PM 1.5863 103.6934 129° Southeast 155 178 2,900 1,320 Climbing FlightAware ADS-B (WSAT / TGA)
07:01PM 1.5846 103.6961 121° Southeast 162 186 3,000 1,320 Climbing FlightAware ADS-B (WSAT / TGA)
07:01PM 1.5829 103.7005 109° East 173 199 3,100 540 Climbing FlightAware ADS-B (WSAT / TGA)
07:01PM 1.5822 103.7029 104° East 181 208 3,100 1,140 Level FlightAware ADS-B (WSAT / TGA)
07:02PM 1.5796 103.7156 100° East 196 226 3,500 1,380 Climbing FlightAware ADS-B (WSAT / TGA)
07:02PM 1.5786 103.7207 100° East 204 235 3,500 1,260 Level FlightAware ADS-B
07:02PM 1.5755 103.7370 100° East 221 254 3,900 1,500 Climbing FlightAware ADS-B (WSAT / TGA)
07:02PM 1.5720 103.7539 101° East 255 293 4,300 1,680 Climbing FlightAware ADS-B (WSAT / TGA)
07:02PM 1.5703 103.7619 102° East 263 303 4,500 1,860 Climbing FlightAware ADS-B
07:02PM 1.5678 103.7732 101° East 272 313 4,800 2,820 Climbing FlightAware ADS-B (WSAT / TGA)
07:03PM 1.5656 103.7840 102° East 276 318 5,400 3,420 Climbing FlightAware ADS-B
07:03PM 1.5642 103.7903 101° East 275 316 5,600 2,700 Climbing FlightAware ADS-B (WSAT / TGA)
07:03PM 1.5601 103.8096 101° East 281 323 6,300 4,080 Climbing FlightAware ADS-B (WSAT / TGA)
07:03PM 1.5581 103.8190 102° East 282 325 7,100 3,720 Climbing FlightAware ADS-B
07:03PM 1.5556 103.8304 101° East 282 325 7,300 2,460 Climbing FlightAware ADS-B (WSAT / TGA)
07:03PM 1.5518 103.8485 101° East 283 326 8,100 3,180 Climbing FlightAware ADS-B (WSAT / TGA)
07:04PM 1.5475 103.8688 101° East 286 329 8,900 3,420 Climbing FlightAware ADS-B (WSAT / TGA)
07:04PM 1.5457 103.8773 102° East 287 330 9,300 3,000 Climbing FlightAware ADS-B
07:04PM 1.5435 103.8874 102° East 288 331 9,600 2,460 Climbing FlightAware ADS-B (WSAT / TGA)
07:04PM 1.5369 103.9184 102° East 296 341 10,600 1,980 Climbing FlightAware ADS-B
07:05PM 1.5334 103.9349 101° East 306 352 10,800 1,560 Climbing FlightAware ADS-B (WSAT / TGA)
07:05PM 1.5248 103.9749 102° East 334 384 11,600 1,680 Climbing FlightAware ADS-B
07:05PM 1.5247 103.9757 102° East 333 383 11,600 2,820 Level FlightAware ADS-B (WSAT / TGA)
07:05PM 1.5153 104.0031 113° Southeast 336 387 12,600 3,000 Climbing FlightAware ADS-B
07:05PM 1.5130 104.0082 113° Southeast 337 388 12,700 2,280 Climbing FlightAware ADS-B (WSAT / TGA)
07:06PM 1.4931 104.0514 114° Southeast 345 397 13,900 2,520 Climbing FlightAware ADS-B (WSAT / TGA)
07:06PM 1.4900 104.0581 115° Southeast 345 397 14,100 2,400 Climbing FlightAware ADS-B
07:06PM 1.4730 104.0950 114° Southeast 351 404 15,100 2,160 Climbing FlightAware ADS-B (WSAT / TGA)
07:07PM 1.4528 104.1388 114° Southeast 359 413 16,100 2,220 Climbing FlightAware ADS-B (WSAT / TGA)
07:07PM 1.4384 104.1699 115° Southeast 361 415 16,900 2,100 Climbing FlightAware ADS-B
07:07PM 1.4311 104.1857 114° Southeast 365 420 17,200 1,620 Climbing FlightAware ADS-B (WSAT / TGA)
07:08PM 1.4149 104.2210 114° Southeast 372 428 18,000 1,800 Climbing FlightAware ADS-B (WSAT / TGA)
07:08PM 1.3938 104.2668 114° Southeast 378 435 18,900 1,740 Climbing FlightAware ADS-B (WSAT / TGA)
07:09PM 1.3608 104.3383 114° Southeast 393 452 20,000 1,560 Climbing FlightAware ADS-B (WSAT / TGA)
07:10PM 1.3360 104.3949 108° East 401 461 20,900 1,680 Climbing FlightAware ADS-B (WSAT / TGA)
07:10PM 1.3319 104.4138 98° East 400 460 21,300 1,860 Climbing FlightAware ADS-B (WSAT / TGA)
07:10PM 1.3319 104.4705 88° East 402 463 22,200 1,800 Climbing FlightAware ADS-B (WSAT / TGA)
07:11PM 1.3332 104.5252 88° East 406 467 23,100 1,560 Climbing FlightAware ADS-B (WSAT / TGA)
07:11PM 1.3345 104.5837 88° East 411 473 23,800 1,380 Climbing FlightAware ADS-B (WSAT / TGA)
07:12PM 1.3359 104.6401 88° East 415 478 24,500 1,500 Climbing FlightAware ADS-B (WSAT / TGA)
07:12PM 1.3372 104.6977 88° East 420 483 25,300 1,320 Climbing FlightAware ADS-B (WSAT / TGA)
07:13PM 1.3390 104.7750 88° East 427 491 26,100 1,320 Climbing FlightAware ADS-B (WSAT / TGA)
07:13PM 1.3403 104.8319 88° East 428 493 26,900 900 Climbing FlightAware ADS-B (WSAT / TGA)
07:14PM 1.3414 104.8787 88° East 431 496 27,000 60 Climbing FlightAware ADS-B (WSAT / TGA)
07:14PM 1.3433 104.9559 88° East 432 497 27,000  Level FlightAware ADS-B (WSAT / TGA)
07:15PM 1.3440 104.9843 88° East 432 497 27,000  Level FlightAware ADS-B (WSAT / TGA)
07:17PM 1.3480 105.1312 88° East  Level Estimated
07:18PM 1.3505 105.2202 88° East  Level Estimated
07:19PM 1.3529 105.3093 88° East  Level Estimated
07:20PM 1.3553 105.3984 88° East  Level Estimated
07:21PM 1.3578 105.4874 88° East  Level Estimated
07:22PM 1.3602 105.5764 88° East  Level Estimated
07:23PM 1.3626 105.6655 88° East  Level Estimated
07:24PM 1.3650 105.7545 88° East  Level Estimated
07:25PM 1.3674 105.8436 88° East  Level Estimated
07:26PM 1.3698 105.9327 88° East  Level Estimated
07:27PM 1.3722 106.0217 88° East  Level Estimated
07:28PM 1.3746 106.1108 88° East  Level Estimated
07:29PM 1.3770 106.1998 88° East  Level Estimated
07:30PM 1.3794 106.2889 88° East  Level Estimated
07:31PM 1.3818 106.3779 88° East  Level Estimated
07:32PM 1.3842 106.4670 88° East  Level Estimated
07:33PM 1.3866 106.5560 88° East  Level Estimated
07:34PM 1.3890 106.6451 88° East  Level Estimated
07:35PM 1.3914 106.7341 88° East  Level Estimated
07:36PM 1.3937 106.8232 88° East  Level Estimated
07:37PM 1.3961 106.9122 88° East  Level Estimated
07:38PM 1.3985 107.0013 88° East  Level Estimated
07:39PM 1.4008 107.0903 88° East  Level Estimated
07:40PM 1.4032 107.1794 88° East  Level Estimated
07:41PM 1.4056 107.2685 88° East  Level Estimated
07:42PM 1.4079 107.3575 88° East  Level Estimated
07:43PM 1.4103 107.4466 88° East  Level Estimated
07:44PM 1.4126 107.5356 88° East  Level Estimated
07:45PM 1.4150 107.6247 88° East  Level Estimated
07:46PM 1.4173 107.7137 88° East  Level Estimated
07:47PM 1.4196 107.8028 88° East  Level Estimated
07:48PM 1.4220 107.8919 88° East  Level Estimated
07:49PM 1.4243 107.9809 88° East  Level Estimated
07:50PM 1.4266 108.0700 89° East  Level Estimated
07:51PM 1.4289 108.1590 89° East  Level Estimated
07:52PM 1.4313 108.2481 89° East  Level Estimated
07:53PM 1.4336 108.3371 89° East  Level Estimated
07:54PM 1.4359 108.4262 89° East  Level Estimated
07:55PM 1.4382 108.5153 89° East  Level Estimated
07:56PM 1.4405 108.6043 89° East  Level Estimated
07:57PM 1.4428 108.6934 89° East  Level Estimated
07:58PM 1.4451 108.7824 89° East  Level Estimated
07:59PM 1.4474 108.8715 89° East  Level Estimated
08:00PM 1.4497 108.9605 89° East  Level Estimated
08:01PM 1.4520 109.0496 89° East  Level Estimated
08:02PM 1.4543 109.1386 89° East  Level Estimated
08:03PM 1.4566 109.2277 89° East  Level Estimated
08:04PM 1.4589 109.3168 89° East  Level Estimated
08:05PM 1.4611 109.4058 89° East  Level Estimated
08:06PM 1.4634 109.4949 89° East  Level Estimated
08:07PM 1.4657 109.5839 89° East  Level Estimated
08:08PM 1.4679 109.6730 89° East  Level Estimated
08:09PM 1.4702 109.7621 89° East  Level Estimated
08:10PM 1.4725 109.8511 89° East  Level Estimated
08:11PM 1.4747 109.9402 89° East  Level Estimated
08:12PM 1.4770 110.0293 89° East  Level Estimated
08:13PM 1.4792 110.1183 89° East  Level Estimated
08:14PM 1.4814 110.2074 89° East  Level Estimated
08:15PM 1.4837 110.2964 89° East  Level Estimated
08:16PM 1.4849 110.3465 89° East  Level Estimated
08:17PM 1.4849 110.3465 North  Level Estimated
08:18PM 1.4849 110.3465 North  Level Estimated
08:19PM 1.4849 110.3465 North  Level Estimated
08:20PM 1.4849 110.3465 North  Level Estimated
08:21PM 1.4849 110.3465 North  Level Estimated
08:22PM 1.4849 110.3465 North  Level Estimated
08:23PM 1.4849 110.3465 North  Level Estimated
08:24PM 1.4849 110.3465 North  Level Estimated